Terminal Aerodrome Forecast
Issued by NWS

Home | Current Version | Previous Version | Text Only | Print | Product List | Glossary On
Versions: 1 2 3 4 5 6 7 8 9 10 11 12 13 14 15 16 17 18 19 20 21 22 23 24
000
FTUS46 KLOX 181400 AAA
TAFLAX
TAF AMD
KLAX 181433Z 1815/1918 21006KT P6SM SCT015
     FM181800 25010KT P6SM SKC
     FM182300 25013KT P6SM BKN015
     FM190300 26008KT P6SM OVC020
     FM190800 VRB03KT P6SM OVC020
     FM191700 20006KT P6SM OVC025=

USA.gov is the U.S. government's official web portal to all federal, state and local government web resources and services.